TFM - Tactical Decision Aid (Experimental) INFO Settings
ID: Runway Winds: CIG/VIS Threshold: METAR Board: Map:

KGTR - Columbus-Golden Triangle Rgnl

Updated at: 2111 UTC 22 Oct 2017
Latest TAF at: 1723 UTC 22 Oct 2017

TAF Board

Time2056Z22/22Z22/23Z23/00Z23/01Z23/02Z23/03Z23/04Z23/05Z23/06Z23/07Z23/08Z23/09Z23/10Z
TypeOBSPRVLPRVLPRVLPRVLPRVLPRVLPRVLPRVLPRVLPRVLPRVLPRVLPRVL
VIS10666>6>6>6>6>6>6>6>6>6>6
CIG221515152525151515158888
CoverBKNBKNBKNBKNBKNBKNBKNBKNBKNBKNBKNBKNBKNBKN
FltCatMVFRMVFRMVFRMVFRMVFRMVFRMVFRMVFRMVFRMVFRIFRIFRIFRIFR
WX---SHRA-SHRA-SHRA-SHRA-SHRAVCSHVCSHVCSHVCSH--------
WDir150160160160170170240240240240310310310310
WSpd111111116677776666
WGst--202020--------------------
TAF
KGTR 221723Z 2218/2318 16011G20KT 6SM -SHRA BKN015
  FM230100 17006KT P6SM -SHRA BKN025
  FM230300 24007KT P6SM VCSH BKN015
  FM230700 31006KT P6SM BKN008
  FM231300 31009KT P6SM BKN015
  FM231500 31010G23KT P6SM BKN025


METAR Board

Time22/10Z 22/11Z 22/12Z 22/13Z 22/14Z 22/15Z 22/16Z 22/17Z 22/18Z 22/19Z 22/20Z 22/21Z
VIS10 10 10 10 10 10 10 10 10 10 10 10
CIG-- -- -- -- -- 15 17 17 15 18 18 22
CoverCLRCLRCLRCLRSCTOVCOVCOVCOVCOVCOVCBKN
FltCatVFRVFRVFRVFRVFRMVFRMVFRMVFRMVFRMVFRMVFRMVFR
WX------------------------
WDir130130120110130130150160160160180150
WSpd10 10 11 11 14 13 9 8 10 8 10 11
WGst-- -- 15 -- 19 -- -- -- -- -- -- --
METAR
KGTR 220956Z AUTO 13010KT 10SM CLR 19/17 A3007 RMK AO2 SLP184 T01940172
KGTR 221056Z 13010KT 10SM CLR 19/17 A3010 RMK AO2 SLP192 T01940167
KGTR 221156Z 12011G15KT 10SM CLR 19/17 A3010 RMK AO2 SLP192 T01940167 10211 20194 50012
KGTR 221256Z 11011KT 10SM CLR 19/17 A3009 RMK AO2 SLP189 T01940172
KGTR 221356Z 13014G19KT 10SM SCT047 21/17 A3008 RMK AO2 SLP185 T02060172
KGTR 221456Z 13013KT 10SM OVC015 22/18 A3008 RMK AO2 SLP184 T02170183 56007
KGTR 221556Z 15009KT 10SM BKN017 OVC035 22/19 A3007 RMK AO2 SLP183 T02220189
KGTR 221656Z 16008KT 10SM OVC017 23/19 A3009 RMK AO2 SLP188 T02280189
KGTR 221756Z 16010KT 10SM BKN015 OVC030 23/19 A3007 RMK AO2 SLP182 T02280194 10228 20194 58002
KGTR 221856Z 16008KT 10SM BKN018 OVC022 24/19 A3003 RMK AO2 SLP167 T02390189
KGTR 221956Z 18010KT 10SM BKN018 OVC025 24/19 A3002 RMK AO2 SLP164 T02390194
KGTR 222056Z 15011KT 10SM BKN022 BKN042 BKN120 24/18 A3001 RMK AO2 SLP162 T02390183 56020

TAF/METAR Board Legend

Potential Impact
  None Marginal Slight Moderate High
Visibility (sm) >5 3≤X≤5 2≤X<3 0.5≤X<2 <0.5
Ceiling (100 ft) >30 10≤X≤30 6≤X<10 2≤X<6 <2
Wind Speed (kt) <10 10≤X<20 20≤X<30 ≥30
Wind Gust (kt) <15 15≤X<25 25≤X<35 ≥35
Weather No Wx Reported VCTS -TS,-FZRA TS,FZRA +TS,+FZRA